createdAt,value
2019-03-31T00:01:40.299Z,8.95
2019-03-31T00:04:07.519Z,8.00
2019-03-31T00:06:34.780Z,9.00
2019-03-31T00:09:02.005Z,9.33
2019-03-31T00:11:29.263Z,10.32
2019-03-31T00:13:56.484Z,8.58
2019-03-31T00:16:23.703Z,8.48
2019-03-31T00:18:50.923Z,9.88
2019-03-31T00:21:18.168Z,11.33
2019-03-31T00:23:45.390Z,8.63
2019-03-31T00:26:12.618Z,10.35
2019-03-31T00:28:39.843Z,9.08
2019-03-31T00:31:07.156Z,9.93
2019-03-31T00:33:34.389Z,11.20
2019-03-31T00:36:01.598Z,9.18
2019-03-31T00:38:28.822Z,8.98
2019-03-31T00:40:56.057Z,10.20
2019-03-31T00:43:23.275Z,9.33
2019-03-31T00:45:50.505Z,10.50
2019-03-31T00:48:17.722Z,10.28
2019-03-31T00:50:44.966Z,10.48
2019-03-31T00:53:12.210Z,12.40
2019-03-31T00:55:39.410Z,10.53
2019-03-31T00:58:06.734Z,9.73
2019-03-31T01:00:48.188Z,12.40
2019-03-31T01:03:15.551Z,9.78
2019-03-31T01:05:43.744Z,8.85
2019-03-31T01:08:11.641Z,8.95
2019-03-31T01:10:38.923Z,8.73
2019-03-31T01:13:06.219Z,8.63
2019-03-31T01:15:33.979Z,9.58
2019-03-31T01:18:01.548Z,9.43
2019-03-31T01:20:28.762Z,8.85
2019-03-31T01:22:55.994Z,9.93
2019-03-31T01:25:23.283Z,9.58
2019-03-31T01:27:50.524Z,9.63
2019-03-31T01:30:18.712Z,10.53
2019-03-31T01:32:46.018Z,10.65
2019-03-31T01:35:13.471Z,8.98
2019-03-31T01:37:40.699Z,10.28
2019-03-31T01:40:07.990Z,11.08
2019-03-31T01:42:35.211Z,9.58
2019-03-31T01:45:02.439Z,9.65
2019-03-31T01:47:29.676Z,9.23
2019-03-31T01:49:56.910Z,10.38
2019-03-31T01:52:24.128Z,9.88
2019-03-31T01:54:51.354Z,9.70
2019-03-31T01:57:18.574Z,9.98
2019-03-31T01:59:45.801Z,8.78
2019-03-31T02:02:14.659Z,9.43
2019-03-31T02:04:41.887Z,9.85
2019-03-31T02:07:09.128Z,9.28
2019-03-31T02:09:36.332Z,10.95
2019-03-31T02:12:03.553Z,10.93
2019-03-31T02:14:30.783Z,8.73
2019-03-31T02:16:58.001Z,10.13
2019-03-31T02:19:25.252Z,10.70
2019-03-31T02:21:52.471Z,9.35
2019-03-31T02:24:19.694Z,9.30
2019-03-31T02:26:46.920Z,10.13
2019-03-31T02:29:14.150Z,10.05
2019-03-31T02:31:41.364Z,8.95
2019-03-31T02:34:08.594Z,9.23
2019-03-31T02:36:35.806Z,9.93
2019-03-31T02:39:04.747Z,8.60
2019-03-31T02:41:32.096Z,10.05
2019-03-31T02:43:59.328Z,9.65
2019-03-31T02:46:26.539Z,8.60
2019-03-31T02:48:53.769Z,9.15
2019-03-31T02:51:21.012Z,8.95
2019-03-31T02:53:48.327Z,9.35
2019-03-31T02:56:16.574Z,8.65
2019-03-31T02:58:44.054Z,10.58
2019-03-31T03:01:11.931Z,8.28
2019-03-31T03:03:39.140Z,8.90
2019-03-31T03:06:06.721Z,7.85
2019-03-31T03:08:34.230Z,9.20
2019-03-31T03:11:02.572Z,9.10
2019-03-31T03:13:30.047Z,10.35
2019-03-31T03:16:04.837Z,10.00
2019-03-31T03:18:32.146Z,9.05
2019-03-31T03:20:59.354Z,8.63
2019-03-31T03:23:26.571Z,8.83
2019-03-31T03:25:56.498Z,9.58
2019-03-31T03:28:22.732Z,9.00
2019-03-31T03:30:50.020Z,9.65
2019-03-31T03:33:18.357Z,7.78
2019-03-31T03:35:46.433Z,7.87
2019-03-31T03:38:13.686Z,8.35
2019-03-31T03:40:40.921Z,8.68
2019-03-31T03:43:08.136Z,7.85
2019-03-31T03:45:35.361Z,8.00
2019-03-31T03:48:02.574Z,9.75
2019-03-31T03:50:29.797Z,8.03
2019-03-31T03:52:57.014Z,8.93
2019-03-31T03:55:24.247Z,9.18
2019-03-31T03:57:51.488Z,9.23
2019-03-31T04:00:18.711Z,8.33
2019-03-31T04:02:45.971Z,9.10
2019-03-31T04:05:13.196Z,8.23
2019-03-31T04:07:40.421Z,9.55
2019-03-31T04:10:09.223Z,10.32
2019-03-31T04:12:36.428Z,9.13
2019-03-31T04:15:03.725Z,9.85
2019-03-31T04:17:31.364Z,9.53
2019-03-31T04:19:58.632Z,8.35
2019-03-31T04:22:25.855Z,8.98
2019-03-31T04:24:53.090Z,9.08
2019-03-31T04:27:20.316Z,9.45
2019-03-31T04:29:47.528Z,7.25
2019-03-31T04:32:14.748Z,9.10
2019-03-31T04:34:41.965Z,7.37
2019-03-31T04:37:09.215Z,8.93
2019-03-31T04:39:36.434Z,7.95
2019-03-31T04:42:03.660Z,7.85
2019-03-31T04:44:30.878Z,9.70
2019-03-31T04:46:58.110Z,8.65
2019-03-31T04:49:25.581Z,8.28
2019-03-31T04:51:52.922Z,9.33
2019-03-31T04:54:20.214Z,8.80
2019-03-31T04:56:47.579Z,8.05
2019-03-31T04:59:14.867Z,8.20
2019-03-31T05:01:42.101Z,9.23
2019-03-31T05:04:09.310Z,10.35
2019-03-31T05:06:36.536Z,9.10
2019-03-31T05:09:05.207Z,8.63
2019-03-31T05:11:32.431Z,9.00
2019-03-31T05:13:59.653Z,11.08
2019-03-31T05:16:26.894Z,9.83
2019-03-31T05:18:54.110Z,9.58
2019-03-31T05:21:21.331Z,7.78
2019-03-31T05:23:48.559Z,9.30
2019-03-31T05:26:15.794Z,8.83
2019-03-31T05:28:44.311Z,9.25
2019-03-31T05:31:11.612Z,7.95
2019-03-31T05:33:38.831Z,8.25
2019-03-31T05:36:06.059Z,9.50
2019-03-31T05:38:33.279Z,7.55
2019-03-31T05:41:00.498Z,7.60
2019-03-31T05:43:27.719Z,8.75
2019-03-31T05:45:54.943Z,8.73
2019-03-31T05:48:22.560Z,7.58
2019-03-31T05:50:49.774Z,7.33
2019-03-31T05:53:17.004Z,9.55
2019-03-31T05:55:44.229Z,7.72
2019-03-31T05:58:11.451Z,8.20
2019-03-31T06:00:40.488Z,7.70
2019-03-31T06:03:07.720Z,8.85
2019-03-31T06:05:34.936Z,8.15
2019-03-31T06:08:02.167Z,8.65
2019-03-31T06:10:29.379Z,8.90
2019-03-31T06:12:56.605Z,8.70
2019-03-31T06:15:23.818Z,8.05
2019-03-31T06:17:51.061Z,9.45
2019-03-31T06:20:18.279Z,9.08
2019-03-31T06:22:45.501Z,8.25
2019-03-31T06:25:12.774Z,8.73
2019-03-31T06:27:40.006Z,8.78
2019-03-31T06:30:08.844Z,7.58
2019-03-31T06:32:36.067Z,9.45
2019-03-31T06:35:04.563Z,9.53
2019-03-31T06:37:31.787Z,9.03
2019-03-31T06:39:59.003Z,9.00
2019-03-31T06:42:26.244Z,8.85
2019-03-31T06:44:53.454Z,8.23
2019-03-31T06:47:20.674Z,9.10
2019-03-31T06:49:47.890Z,9.48
2019-03-31T06:52:15.125Z,9.58
2019-03-31T06:54:42.330Z,9.90
2019-03-31T06:57:09.554Z,7.95
2019-03-31T06:59:36.776Z,9.33
2019-03-31T07:02:04.014Z,10.53
2019-03-31T07:04:31.230Z,8.48
2019-03-31T07:06:58.461Z,9.70
2019-03-31T07:09:25.706Z,9.68
2019-03-31T07:11:53.067Z,9.13
2019-03-31T07:14:20.292Z,9.40
2019-03-31T07:16:47.570Z,8.60
2019-03-31T07:19:14.792Z,9.90
2019-03-31T07:21:42.041Z,9.63
2019-03-31T07:24:09.274Z,9.83
2019-03-31T07:26:36.584Z,9.73
2019-03-31T07:29:04.123Z,8.90
2019-03-31T07:31:31.350Z,9.10
2019-03-31T07:33:58.769Z,8.33
2019-03-31T07:36:26.041Z,8.97
2019-03-31T07:38:53.269Z,9.17
2019-03-31T07:41:20.514Z,9.90
2019-03-31T07:43:47.795Z,10.07
2019-03-31T07:46:15.015Z,8.60
2019-03-31T07:48:42.553Z,9.00
2019-03-31T07:51:09.780Z,8.87
2019-03-31T07:53:37.004Z,9.20
2019-03-31T07:56:04.251Z,11.30
2019-03-31T07:58:31.486Z,12.90
2019-03-31T08:00:59.283Z,13.07
2019-03-31T08:03:26.511Z,26.33
2019-03-31T08:05:53.759Z,27.50
2019-03-31T08:08:20.978Z,28.10
2019-03-31T08:10:48.215Z,23.57
2019-03-31T08:13:16.157Z,22.67
2019-03-31T08:15:43.392Z,17.60
2019-03-31T08:18:10.735Z,17.87
2019-03-31T08:20:37.947Z,17.90
2019-03-31T08:23:05.188Z,18.00
2019-03-31T08:25:32.402Z,17.80
2019-03-31T08:27:59.640Z,16.00
2019-03-31T08:30:27.052Z,16.60
2019-03-31T08:32:54.379Z,14.83
2019-03-31T08:35:24.457Z,14.03
2019-03-31T08:37:54.619Z,14.23
2019-03-31T08:40:21.853Z,14.10
2019-03-31T08:42:49.113Z,13.27
2019-03-31T08:45:16.467Z,14.33
2019-03-31T08:47:43.699Z,14.13
2019-03-31T08:50:11.232Z,14.10
2019-03-31T08:52:38.497Z,15.30
2019-03-31T08:55:06.937Z,13.33
2019-03-31T08:57:34.426Z,13.90
2019-03-31T09:00:01.696Z,15.47
2019-03-31T09:02:35.361Z,15.27
2019-03-31T09:05:02.972Z,13.90
2019-03-31T09:07:30.204Z,16.80
2019-03-31T09:09:57.446Z,15.30
2019-03-31T09:12:24.708Z,14.63
2019-03-31T09:14:51.984Z,14.60
2019-03-31T09:17:19.333Z,14.80
2019-03-31T09:19:46.662Z,13.87
2019-03-31T09:22:13.944Z,14.43
2019-03-31T09:24:41.243Z,15.93
2019-03-31T09:27:14.278Z,15.87
2019-03-31T09:29:41.559Z,15.30
2019-03-31T09:32:08.779Z,13.80
2019-03-31T09:34:36.016Z,14.60
2019-03-31T09:37:03.303Z,14.13
2019-03-31T09:39:30.541Z,14.40
2019-03-31T09:41:57.919Z,13.40
2019-03-31T09:44:25.336Z,13.13
2019-03-31T09:46:52.588Z,14.50
2019-03-31T09:49:19.820Z,14.30
2019-03-31T09:51:47.065Z,14.20
2019-03-31T09:54:14.287Z,14.10
2019-03-31T09:56:41.515Z,15.17
2019-03-31T09:59:08.734Z,14.40
2019-03-31T10:01:36.286Z,15.30
2019-03-31T10:04:03.564Z,16.13
2019-03-31T10:06:31.764Z,15.00
2019-03-31T10:08:59.491Z,13.97
2019-03-31T10:11:26.723Z,15.50
2019-03-31T10:13:53.957Z,14.80
2019-03-31T10:16:21.198Z,16.10
2019-03-31T10:18:48.491Z,16.60
2019-03-31T10:21:15.722Z,13.67
2019-03-31T10:23:42.961Z,15.50
2019-03-31T10:26:10.196Z,16.97
2019-03-31T10:28:37.419Z,13.53
2019-03-31T10:31:04.647Z,14.20
2019-03-31T10:33:31.884Z,15.00
2019-03-31T10:35:59.116Z,15.63
2019-03-31T10:38:26.342Z,16.30
2019-03-31T10:40:53.671Z,15.63
2019-03-31T10:43:20.883Z,15.77
2019-03-31T10:45:48.117Z,16.30
2019-03-31T10:48:20.698Z,17.13
2019-03-31T10:50:44.291Z,16.83
2019-03-31T10:53:11.527Z,15.03
2019-03-31T10:55:38.750Z,15.60
2019-03-31T10:58:05.961Z,16.77
2019-03-31T11:00:36.971Z,16.77
2019-03-31T11:03:05.484Z,17.20
2019-03-31T11:05:32.792Z,16.47
2019-03-31T11:08:00.015Z,16.90
2019-03-31T11:10:27.315Z,16.17
2019-03-31T11:12:54.540Z,15.90
2019-03-31T11:15:21.770Z,15.50
2019-03-31T11:17:48.994Z,16.83
2019-03-31T11:20:16.228Z,16.90
2019-03-31T11:22:57.499Z,14.77
2019-03-31T11:25:28.948Z,16.20
2019-03-31T11:27:53.678Z,16.47
2019-03-31T11:30:20.931Z,14.90
2019-03-31T11:32:48.170Z,14.60
2019-03-31T11:35:15.399Z,13.97
2019-03-31T11:37:42.621Z,16.40
2019-03-31T11:40:10.130Z,16.77
2019-03-31T11:42:37.370Z,14.20
2019-03-31T11:45:06.135Z,14.70
2019-03-31T11:47:33.391Z,15.07
2019-03-31T11:50:00.726Z,14.87
2019-03-31T11:52:28.084Z,14.73
2019-03-31T11:54:55.367Z,12.87
2019-03-31T11:57:22.607Z,12.90
2019-03-31T11:59:49.970Z,15.60
2019-03-31T12:02:27.109Z,14.57
2019-03-31T12:04:46.274Z,12.80
2019-03-31T12:07:26.907Z,15.40
2019-03-31T12:09:42.581Z,13.80
2019-03-31T12:12:09.818Z,12.20
2019-03-31T12:14:37.028Z,13.43
2019-03-31T12:17:04.247Z,13.00
2019-03-31T12:19:31.470Z,12.10
2019-03-31T12:21:58.715Z,10.00
2019-03-31T12:24:25.973Z,10.30
2019-03-31T12:26:53.199Z,9.80
2019-03-31T12:29:20.419Z,10.87
2019-03-31T12:31:47.749Z,12.47
2019-03-31T12:34:14.956Z,8.27
2019-03-31T12:36:42.191Z,8.40
2019-03-31T12:39:09.419Z,10.10
2019-03-31T12:41:36.647Z,7.43
2019-03-31T12:44:04.043Z,6.70
2019-03-31T12:46:31.335Z,8.23
2019-03-31T12:48:58.611Z,8.30
2019-03-31T12:51:25.839Z,8.03
2019-03-31T12:53:53.081Z,8.70
2019-03-31T12:56:24.358Z,10.50
2019-03-31T12:58:51.575Z,7.97
2019-03-31T13:01:18.803Z,6.80
2019-03-31T13:03:46.059Z,7.80
2019-03-31T13:06:13.283Z,8.10
2019-03-31T13:08:40.519Z,6.93
2019-03-31T13:11:08.442Z,7.00
2019-03-31T13:13:35.696Z,6.70
2019-03-31T13:16:02.944Z,8.47
2019-03-31T13:18:30.240Z,8.33
2019-03-31T13:20:57.489Z,8.20
2019-03-31T13:23:24.709Z,9.60
2019-03-31T13:25:52.012Z,8.00
2019-03-31T13:28:19.311Z,8.00
2019-03-31T13:30:46.527Z,8.00
2019-03-31T13:33:13.760Z,7.10
2019-03-31T13:35:41.064Z,7.13
2019-03-31T13:38:11.218Z,6.00
2019-03-31T13:40:37.275Z,6.63
2019-03-31T13:43:04.572Z,5.80
2019-03-31T13:45:31.812Z,5.97
2019-03-31T13:47:59.145Z,6.57
2019-03-31T13:50:26.431Z,5.80
2019-03-31T13:52:53.677Z,5.43
2019-03-31T13:55:21.156Z,5.80
2019-03-31T13:57:49.385Z,5.43
2019-03-31T14:00:25.528Z,4.73
2019-03-31T14:02:47.711Z,4.53
2019-03-31T14:05:15.003Z,4.90
2019-03-31T14:07:42.257Z,5.60
2019-03-31T14:10:09.551Z,4.47
2019-03-31T14:12:36.796Z,4.40
2019-03-31T14:15:18.446Z,4.30
2019-03-31T14:17:35.707Z,5.10
2019-03-31T14:20:04.803Z,4.90
2019-03-31T14:22:32.132Z,5.13
2019-03-31T14:24:59.346Z,4.57
2019-03-31T14:27:26.635Z,4.40
2019-03-31T14:29:53.857Z,3.63
2019-03-31T14:32:21.078Z,3.57
2019-03-31T14:34:48.337Z,3.77
2019-03-31T14:37:15.637Z,4.10
2019-03-31T14:39:42.863Z,4.57
2019-03-31T14:42:12.472Z,3.60
2019-03-31T14:44:39.770Z,3.90
2019-03-31T14:47:07.068Z,4.00
2019-03-31T14:49:34.359Z,3.90
2019-03-31T14:52:01.731Z,3.70
2019-03-31T14:54:29.077Z,3.50
2019-03-31T14:56:56.300Z,3.97
2019-03-31T14:59:23.659Z,4.10
2019-03-31T15:01:52.755Z,3.57
2019-03-31T15:04:20.054Z,3.83
2019-03-31T15:06:47.294Z,4.00
2019-03-31T15:09:14.497Z,4.07
2019-03-31T15:11:41.841Z,4.03
2019-03-31T15:14:09.063Z,3.93
2019-03-31T15:16:48.300Z,3.33
2019-03-31T15:19:14.403Z,3.50
2019-03-31T15:21:44.607Z,3.40
2019-03-31T15:24:10.575Z,3.97
2019-03-31T15:26:37.799Z,3.67
2019-03-31T15:29:05.022Z,4.13
2019-03-31T15:31:32.235Z,3.17
2019-03-31T15:33:59.459Z,3.93
2019-03-31T15:36:26.679Z,3.73
2019-03-31T15:39:07.838Z,3.40
2019-03-31T15:41:22.890Z,2.97
2019-03-31T15:43:50.303Z,3.00
2019-03-31T15:46:17.538Z,3.60
2019-03-31T15:48:45.037Z,3.43
2019-03-31T15:51:12.386Z,3.80
2019-03-31T15:53:40.603Z,3.57
2019-03-31T15:56:07.827Z,2.90
2019-03-31T15:58:35.042Z,2.87
2019-03-31T16:01:02.356Z,4.40
2019-03-31T16:03:29.655Z,3.63
2019-03-31T16:05:57.032Z,2.93
2019-03-31T16:08:24.243Z,3.63
2019-03-31T16:10:51.459Z,3.37
2019-03-31T16:13:18.790Z,3.10
2019-03-31T16:15:46.004Z,3.90
2019-03-31T16:18:14.378Z,3.30
2019-03-31T16:20:41.639Z,7.00
2019-03-31T16:23:08.860Z,4.97
2019-03-31T16:25:37.716Z,3.00
2019-03-31T16:28:04.940Z,3.20
2019-03-31T16:30:34.745Z,10.27
2019-03-31T16:33:01.959Z,6.20
2019-03-31T16:35:29.178Z,3.20
2019-03-31T16:37:56.396Z,3.80
2019-03-31T16:40:23.753Z,2.67
2019-03-31T16:42:51.015Z,3.07
2019-03-31T16:45:18.281Z,3.50
2019-03-31T16:47:45.562Z,2.47
2019-03-31T16:50:12.882Z,3.00
2019-03-31T16:52:43.251Z,3.40
2019-03-31T16:55:10.545Z,3.50
2019-03-31T16:57:39.716Z,3.77
2019-03-31T17:00:07.695Z,3.50
2019-03-31T17:02:34.914Z,3.17
2019-03-31T17:05:02.533Z,3.10
2019-03-31T17:07:29.756Z,2.10
2019-03-31T17:09:57.023Z,2.67
2019-03-31T17:12:24.301Z,3.20
2019-03-31T17:14:51.773Z,2.70
2019-03-31T17:17:18.997Z,2.30
2019-03-31T17:19:46.207Z,3.13
2019-03-31T17:22:13.429Z,3.60
2019-03-31T17:24:40.636Z,4.10
2019-03-31T17:27:07.864Z,4.60
2019-03-31T17:29:35.119Z,3.90
2019-03-31T17:32:02.578Z,3.80
2019-03-31T17:34:29.895Z,4.40
2019-03-31T17:36:57.189Z,4.27
2019-03-31T17:39:24.835Z,3.53
2019-03-31T17:41:52.214Z,7.47
2019-03-31T17:44:19.434Z,5.63
2019-03-31T17:46:46.700Z,5.77
2019-03-31T17:49:13.923Z,4.60
2019-03-31T17:51:41.151Z,5.27
2019-03-31T17:54:08.380Z,6.40
2019-03-31T17:56:35.591Z,4.63
2019-03-31T17:59:03.096Z,4.57
2019-03-31T18:01:30.310Z,4.50
2019-03-31T18:03:57.549Z,4.40
2019-03-31T18:06:26.287Z,4.90
2019-03-31T18:08:53.516Z,4.03
2019-03-31T18:11:20.752Z,4.40
2019-03-31T18:13:47.979Z,4.20
2019-03-31T18:16:15.202Z,5.10
2019-03-31T18:34:57.537Z,3.93
2019-03-31T18:37:24.761Z,4.43
2019-03-31T18:39:51.974Z,3.80
2019-03-31T18:42:19.195Z,4.10
2019-03-31T18:44:46.415Z,4.77
2019-03-31T18:47:13.651Z,4.70
2019-03-31T18:49:40.864Z,5.27
2019-03-31T18:52:08.082Z,4.87
2019-03-31T18:54:48.901Z,4.80
2019-03-31T18:57:20.968Z,5.13
2019-03-31T19:00:08.333Z,5.40
2019-03-31T19:02:53.567Z,5.57
2019-03-31T19:05:28.367Z,5.33
2019-03-31T19:07:57.394Z,5.97
2019-03-31T19:10:49.392Z,5.57
2019-03-31T19:13:29.051Z,5.37
2019-03-31T19:15:58.008Z,5.60
2019-03-31T19:18:29.996Z,6.20
2019-03-31T19:21:11.407Z,6.70
2019-03-31T19:23:32.556Z,6.60
2019-03-31T19:26:04.094Z,6.37
2019-03-31T19:28:33.725Z,6.53
2019-03-31T19:31:02.683Z,8.47
2019-03-31T19:33:34.289Z,8.67
2019-03-31T19:36:18.510Z,8.40
2019-03-31T19:38:48.318Z,7.77
2019-03-31T19:41:17.180Z,8.77
2019-03-31T19:43:48.444Z,8.13
2019-03-31T19:46:17.302Z,8.27
2019-03-31T19:48:46.167Z,9.67
2019-03-31T19:51:15.028Z,7.90
2019-03-31T19:53:53.104Z,7.33
2019-03-31T19:56:24.932Z,8.63
2019-03-31T19:58:53.854Z,7.30
2019-03-31T20:01:25.459Z,7.40
2019-03-31T20:03:54.328Z,7.90
2019-03-31T20:06:23.179Z,7.40
2019-03-31T20:08:54.753Z,8.20
2019-03-31T20:11:29.537Z,9.40
2019-03-31T20:14:15.069Z,9.17
2019-03-31T20:16:46.720Z,10.93
2019-03-31T20:19:21.814Z,8.37
2019-03-31T20:21:53.354Z,7.43
2019-03-31T20:24:40.466Z,7.80
2019-03-31T20:27:11.827Z,8.93
2019-03-31T20:29:40.685Z,8.40
2019-03-31T20:32:12.535Z,7.53
2019-03-31T20:34:44.182Z,8.10
2019-03-31T20:37:22.216Z,8.30
2019-03-31T20:39:57.303Z,8.17
2019-03-31T20:42:28.940Z,9.30
2019-03-31T20:44:56.165Z,10.27
2019-03-31T20:47:23.380Z,8.53
2019-03-31T20:49:50.597Z,8.00
2019-03-31T20:52:17.822Z,10.70
2019-03-31T20:54:45.044Z,9.30
2019-03-31T20:57:12.261Z,9.47
2019-03-31T20:59:39.581Z,9.60
2019-03-31T21:02:06.782Z,8.37
2019-03-31T21:04:34.008Z,7.77
2019-03-31T21:07:01.230Z,11.00
2019-03-31T21:09:28.460Z,9.53
2019-03-31T21:11:55.698Z,9.30
2019-03-31T21:14:22.915Z,8.93
2019-03-31T21:16:50.144Z,9.83
2019-03-31T21:19:19.168Z,9.70
2019-03-31T21:21:47.130Z,10.90
2019-03-31T21:24:14.368Z,10.30
2019-03-31T21:26:41.580Z,11.53
2019-03-31T21:29:08.862Z,10.47
2019-03-31T21:31:36.167Z,10.73
2019-03-31T21:34:03.457Z,11.43
2019-03-31T21:36:30.699Z,10.20
2019-03-31T21:38:57.943Z,13.10
2019-03-31T21:41:25.168Z,12.53
2019-03-31T21:43:52.408Z,10.70
2019-03-31T21:46:19.622Z,10.80
2019-03-31T21:48:46.865Z,11.13
2019-03-31T21:51:14.096Z,12.30
2019-03-31T21:53:41.318Z,12.07
2019-03-31T21:56:08.539Z,11.13
2019-03-31T21:58:35.836Z,13.00
2019-03-31T22:01:03.111Z,12.40
2019-03-31T22:03:30.338Z,14.80
2019-03-31T22:05:57.576Z,14.10
2019-03-31T22:08:24.812Z,13.80
2019-03-31T22:10:52.036Z,16.13
2019-03-31T22:13:19.328Z,15.47
2019-03-31T22:15:46.560Z,16.30
2019-03-31T22:18:13.781Z,15.50
2019-03-31T22:20:41.008Z,16.20
2019-03-31T22:23:08.284Z,15.80
2019-03-31T22:25:35.582Z,17.33
2019-03-31T22:28:02.818Z,18.30
2019-03-31T22:30:30.047Z,20.13
2019-03-31T22:32:57.262Z,16.73
2019-03-31T22:35:24.490Z,17.13
2019-03-31T22:37:51.716Z,18.30
2019-03-31T22:40:20.490Z,18.07
2019-03-31T22:42:47.714Z,19.23
2019-03-31T22:45:14.947Z,18.30
2019-03-31T22:47:42.179Z,19.03
2019-03-31T22:50:09.476Z,19.53
2019-03-31T22:52:36.740Z,18.83
2019-03-31T22:55:05.501Z,19.03
2019-03-31T22:57:32.717Z,18.97
2019-03-31T22:59:59.943Z,19.80
2019-03-31T23:02:27.170Z,20.10
2019-03-31T23:04:54.479Z,19.90
2019-03-31T23:07:21.747Z,19.47
2019-03-31T23:09:48.970Z,23.23
2019-03-31T23:12:16.191Z,21.63
2019-03-31T23:14:43.714Z,21.80
2019-03-31T23:17:10.939Z,23.37
2019-03-31T23:19:38.164Z,22.77
2019-03-31T23:22:05.386Z,21.83
2019-03-31T23:24:32.610Z,22.77
2019-03-31T23:27:00.219Z,24.67
2019-03-31T23:29:27.444Z,23.90
2019-03-31T23:31:54.729Z,23.85
2019-03-31T23:34:21.953Z,21.48
2019-03-31T23:36:49.180Z,24.30
2019-03-31T23:39:16.407Z,24.43
2019-03-31T23:41:43.639Z,24.63
2019-03-31T23:44:10.855Z,26.60
2019-03-31T23:46:38.102Z,28.40
2019-03-31T23:49:05.334Z,25.50
2019-03-31T23:51:32.563Z,26.03
2019-03-31T23:53:59.785Z,25.27
2019-03-31T23:56:27.091Z,25.80
2019-03-31T23:58:54.325Z,28.03
